sensor_id;sensor_type;location;lat;lon;timestamp;pressure;altitude;pressure_sealevel;temperature;humidity
40490;BME280;26196;52.302;10.572;2022-12-18T00:03:15;102083.41;;;5.95;39.04
40490;BME280;26196;52.302;10.572;2022-12-18T00:07:16;102088.53;;;5.93;38.67
40490;BME280;26196;52.302;10.572;2022-12-18T00:11:18;102082.38;;;5.88;38.76
40490;BME280;26196;52.302;10.572;2022-12-18T00:15:19;102090.94;;;5.84;39.02
40490;BME280;26196;52.302;10.572;2022-12-18T00:19:19;102085.66;;;5.78;39.25
40490;BME280;26196;52.302;10.572;2022-12-18T00:23:20;102107.25;;;5.75;39.08
40490;BME280;26196;52.302;10.572;2022-12-18T00:27:20;102108.09;;;5.73;38.91
40490;BME280;26196;52.302;10.572;2022-12-18T00:31:22;102111.59;;;5.75;38.84
40490;BME280;26196;52.302;10.572;2022-12-18T00:35:23;102105.38;;;5.68;38.81
40490;BME280;26196;52.302;10.572;2022-12-18T00:39:23;102112.22;;;5.63;39.30
40490;BME280;26196;52.302;10.572;2022-12-18T00:43:24;102100.00;;;5.56;39.04
40490;BME280;26196;52.302;10.572;2022-12-18T00:47:24;102103.56;;;5.61;38.57
40490;BME280;26196;52.302;10.572;2022-12-18T00:51:25;102114.75;;;5.58;38.84
40490;BME280;26196;52.302;10.572;2022-12-18T00:55:25;102120.72;;;5.54;38.59
40490;BME280;26196;52.302;10.572;2022-12-18T00:59:26;102127.59;;;5.52;38.71
40490;BME280;26196;52.302;10.572;2022-12-18T01:03:26;102130.16;;;5.49;38.78
40490;BME280;26196;52.302;10.572;2022-12-18T01:07:26;102138.81;;;5.48;38.45
40490;BME280;26196;52.302;10.572;2022-12-18T01:11:27;102132.63;;;5.43;38.24
40490;BME280;26196;52.302;10.572;2022-12-18T01:15:27;102128.19;;;5.37;38.66
40490;BME280;26196;52.302;10.572;2022-12-18T01:19:27;102131.59;;;5.35;39.21
40490;BME280;26196;52.302;10.572;2022-12-18T01:23:28;102139.31;;;5.32;38.94
40490;BME280;26196;52.302;10.572;2022-12-18T01:27:28;102151.56;;;5.37;38.29
40490;BME280;26196;52.302;10.572;2022-12-18T01:31:30;102153.03;;;5.26;38.62
40490;BME280;26196;52.302;10.572;2022-12-18T01:35:31;102155.63;;;5.24;38.94
40490;BME280;26196;52.302;10.572;2022-12-18T01:39:32;102148.59;;;5.20;38.92
40490;BME280;26196;52.302;10.572;2022-12-18T01:43:44;102150.22;;;5.15;39.26
40490;BME280;26196;52.302;10.572;2022-12-18T01:47:51;102155.34;;;5.12;38.73
40490;BME280;26196;52.302;10.572;2022-12-18T01:51:52;102154.38;;;5.07;39.03
40490;BME280;26196;52.302;10.572;2022-12-18T01:55:55;102156.97;;;5.07;39.12
40490;BME280;26196;52.302;10.572;2022-12-18T01:59:59;102156.09;;;5.07;38.54
40490;BME280;26196;52.302;10.572;2022-12-18T02:04:36;102161.25;;;5.05;38.86
40490;BME280;26196;52.302;10.572;2022-12-18T02:08:58;102155.88;;;4.97;38.93
40490;BME280;26196;52.302;10.572;2022-12-18T02:13:19;102134.16;;;4.92;38.63
40490;BME280;26196;52.302;10.572;2022-12-18T02:17:22;102135.75;;;4.87;38.78
40490;BME280;26196;52.302;10.572;2022-12-18T02:29:34;102155.66;;;4.87;38.56
40490;BME280;26196;52.302;10.572;2022-12-18T02:33:37;102153.72;;;4.78;38.76
40490;BME280;26196;52.302;10.572;2022-12-18T02:37:40;102150.22;;;4.76;38.46
40490;BME280;26196;52.302;10.572;2022-12-18T02:41:42;102156.16;;;4.72;38.70
40490;BME280;26196;52.302;10.572;2022-12-18T02:45:54;102156.94;;;4.68;38.50
40490;BME280;26196;52.302;10.572;2022-12-18T02:54:16;102157.75;;;4.65;38.86
40490;BME280;26196;52.302;10.572;2022-12-18T02:58:53;102149.84;;;4.60;38.27
40490;BME280;26196;52.302;10.572;2022-12-18T03:02:59;102147.13;;;4.54;38.18
40490;BME280;26196;52.302;10.572;2022-12-18T03:07:03;102152.34;;;4.56;37.92
40490;BME280;26196;52.302;10.572;2022-12-18T03:11:08;102149.75;;;4.56;38.09
40490;BME280;26196;52.302;10.572;2022-12-18T03:15:19;102155.78;;;4.55;38.32
40490;BME280;26196;52.302;10.572;2022-12-18T03:19:24;102157.44;;;4.53;38.21
40490;BME280;26196;52.302;10.572;2022-12-18T03:23:30;102157.44;;;4.53;38.39
40490;BME280;26196;52.302;10.572;2022-12-18T03:27:33;102152.88;;;4.43;38.24
40490;BME280;26196;52.302;10.572;2022-12-18T03:31:37;102145.88;;;4.38;38.16
40490;BME280;26196;52.302;10.572;2022-12-18T03:35:42;102139.72;;;4.33;38.34
40490;BME280;26196;52.302;10.572;2022-12-18T03:39:43;102150.09;;;4.33;38.44
40490;BME280;26196;52.302;10.572;2022-12-18T03:44:03;102148.25;;;4.29;37.81
40490;BME280;26196;52.302;10.572;2022-12-18T03:48:21;102143.97;;;4.31;38.16
40490;BME280;26196;52.302;10.572;2022-12-18T03:52:31;102113.34;;;4.15;37.88
40490;BME280;26196;52.302;10.572;2022-12-18T03:56:42;102143.78;;;4.24;38.05
40490;BME280;26196;52.302;10.572;2022-12-18T04:00:45;102146.25;;;4.19;38.02
40490;BME280;26196;52.302;10.572;2022-12-18T04:04:50;102148.72;;;4.14;38.54
40490;BME280;26196;52.302;10.572;2022-12-18T04:08:52;102147.75;;;4.09;37.95
40490;BME280;26196;52.302;10.572;2022-12-18T04:12:56;102139.06;;;4.07;37.89
40490;BME280;26196;52.302;10.572;2022-12-18T04:16:57;102130.41;;;4.07;38.25
40490;BME280;26196;52.302;10.572;2022-12-18T04:20:57;102135.50;;;4.04;38.35
40490;BME280;26196;52.302;10.572;2022-12-18T04:24:57;102137.13;;;4.00;38.20
40490;BME280;26196;52.302;10.572;2022-12-18T04:28:58;102137.19;;;4.02;38.15
40490;BME280;26196;52.302;10.572;2022-12-18T04:32:58;102160.41;;;3.99;38.27
40490;BME280;26196;52.302;10.572;2022-12-18T04:36:59;102159.31;;;3.90;38.21
40490;BME280;26196;52.302;10.572;2022-12-18T04:40:59;102163.72;;;3.93;38.08
40490;BME280;26196;52.302;10.572;2022-12-18T04:44:59;102165.34;;;3.89;37.84
40490;BME280;26196;52.302;10.572;2022-12-18T04:48:59;102154.91;;;3.86;38.35
40490;BME280;26196;52.302;10.572;2022-12-18T04:53:00;102154.00;;;3.84;37.87
40490;BME280;26196;52.302;10.572;2022-12-18T04:57:00;102153.00;;;3.79;38.46
40490;BME280;26196;52.302;10.572;2022-12-18T05:01:00;102155.63;;;3.81;37.72
40490;BME280;26196;52.302;10.572;2022-12-18T05:05:01;102152.91;;;3.76;38.12
40490;BME280;26196;52.302;10.572;2022-12-18T05:09:01;102146.81;;;3.74;38.07
40490;BME280;26196;52.302;10.572;2022-12-18T05:13:02;102135.44;;;3.69;38.08
40490;BME280;26196;52.302;10.572;2022-12-18T05:17:02;102118.97;;;3.67;37.95
40490;BME280;26196;52.302;10.572;2022-12-18T05:21:03;102129.34;;;3.67;38.12
40490;BME280;26196;52.302;10.572;2022-12-18T05:25:03;102146.66;;;3.68;37.91
40490;BME280;26196;52.302;10.572;2022-12-18T05:29:04;102136.25;;;3.66;37.71
40490;BME280;26196;52.302;10.572;2022-12-18T05:33:04;102134.59;;;3.70;38.04
40490;BME280;26196;52.302;10.572;2022-12-18T05:37:05;102132.84;;;3.69;37.68
40490;BME280;26196;52.302;10.572;2022-12-18T05:41:06;102143.13;;;3.66;37.79
40490;BME280;26196;52.302;10.572;2022-12-18T05:45:07;102146.44;;;3.60;37.85
40490;BME280;26196;52.302;10.572;2022-12-18T05:49:07;102137.81;;;3.61;37.61
40490;BME280;26196;52.302;10.572;2022-12-18T05:53:08;102156.81;;;3.60;37.65
40490;BME280;26196;52.302;10.572;2022-12-18T05:57:08;102150.63;;;3.55;37.99
40490;BME280;26196;52.302;10.572;2022-12-18T06:01:21;102159.25;;;3.56;37.70
40490;BME280;26196;52.302;10.572;2022-12-18T06:05:22;102169.53;;;3.53;38.05
40490;BME280;26196;52.302;10.572;2022-12-18T06:09:22;102168.69;;;3.54;37.63
40490;BME280;26196;52.302;10.572;2022-12-18T06:13:22;102182.41;;;3.49;37.87
40490;BME280;26196;52.302;10.572;2022-12-18T06:17:23;102189.16;;;3.44;37.92
40490;BME280;26196;52.302;10.572;2022-12-18T06:21:23;102195.97;;;3.42;37.71
40490;BME280;26196;52.302;10.572;2022-12-18T06:25:24;102200.28;;;3.42;37.80
40490;BME280;26196;52.302;10.572;2022-12-18T06:29:24;102198.50;;;3.41;38.07
40490;BME280;26196;52.302;10.572;2022-12-18T06:33:27;102197.56;;;3.37;37.88
40490;BME280;26196;52.302;10.572;2022-12-18T06:37:28;102204.41;;;3.35;37.99
40490;BME280;26196;52.302;10.572;2022-12-18T06:41:28;102202.53;;;3.31;38.00
40490;BME280;26196;52.302;10.572;2022-12-18T06:45:28;102205.19;;;3.33;37.83
40490;BME280;26196;52.302;10.572;2022-12-18T06:49:29;102199.22;;;3.35;37.64
40490;BME280;26196;52.302;10.572;2022-12-18T06:53:29;102202.72;;;3.37;37.96
40490;BME280;26196;52.302;10.572;2022-12-18T06:57:30;102213.16;;;3.40;37.92
40490;BME280;26196;52.302;10.572;2022-12-18T07:01:30;102224.06;;;3.28;37.75
40490;BME280;26196;52.302;10.572;2022-12-18T07:05:30;102221.41;;;3.27;38.12
40490;BME280;26196;52.302;10.572;2022-12-18T07:09:31;102216.16;;;3.24;38.18
40490;BME280;26196;52.302;10.572;2022-12-18T07:13:31;102200.69;;;3.27;37.97
40490;BME280;26196;52.302;10.572;2022-12-18T07:17:31;102206.91;;;3.32;37.95
40490;BME280;26196;52.302;10.572;2022-12-18T07:21:32;102232.72;;;3.31;37.89
40490;BME280;26196;52.302;10.572;2022-12-18T07:25:36;102237.56;;;3.20;38.08
40490;BME280;26196;52.302;10.572;2022-12-18T07:29:36;102241.88;;;3.19;38.40
40490;BME280;26196;52.302;10.572;2022-12-18T07:33:37;102257.53;;;3.24;38.12
40490;BME280;26196;52.302;10.572;2022-12-18T07:37:38;102264.28;;;3.19;37.88
40490;BME280;26196;52.302;10.572;2022-12-18T07:41:38;102267.59;;;3.15;38.06
40490;BME280;26196;52.302;10.572;2022-12-18T07:45:42;102269.22;;;3.11;38.13
40490;BME280;26196;52.302;10.572;2022-12-18T07:49:43;102276.97;;;3.11;37.99
40490;BME280;26196;52.302;10.572;2022-12-18T07:53:44;102275.97;;;3.07;37.76
40490;BME280;26196;52.302;10.572;2022-12-18T07:57:44;102281.16;;;3.07;38.13
40490;BME280;26196;52.302;10.572;2022-12-18T08:01:45;102297.53;;;3.06;38.23
40490;BME280;26196;52.302;10.572;2022-12-18T08:05:45;102303.53;;;3.05;38.09
40490;BME280;26196;52.302;10.572;2022-12-18T08:09:46;102300.78;;;3.01;38.30
40490;BME280;26196;52.302;10.572;2022-12-18T08:13:46;102290.69;;;3.09;38.10
40490;BME280;26196;52.302;10.572;2022-12-18T08:17:46;102287.25;;;3.08;38.28
40490;BME280;26196;52.302;10.572;2022-12-18T08:21:47;102273.28;;;3.03;38.34
40490;BME280;26196;52.302;10.572;2022-12-18T08:25:47;102266.28;;;3.00;38.45
40490;BME280;26196;52.302;10.572;2022-12-18T08:29:48;102258.63;;;3.03;38.30
40490;BME280;26196;52.302;10.572;2022-12-18T08:33:49;102256.97;;;3.05;38.50
40490;BME280;26196;52.302;10.572;2022-12-18T08:37:50;102251.84;;;3.07;38.79
40490;BME280;26196;52.302;10.572;2022-12-18T08:41:50;102254.56;;;3.12;38.56
40490;BME280;26196;52.302;10.572;2022-12-18T08:46:09;102245.78;;;3.06;38.54
40490;BME280;26196;52.302;10.572;2022-12-18T08:50:09;102242.41;;;3.09;38.85
40490;BME280;26196;52.302;10.572;2022-12-18T08:54:11;102244.03;;;3.05;38.67
40490;BME280;26196;52.302;10.572;2022-12-18T08:58:13;102237.94;;;3.03;39.17
40490;BME280;26196;52.302;10.572;2022-12-18T09:02:13;102234.72;;;3.11;39.47
40490;BME280;26196;52.302;10.572;2022-12-18T09:06:16;102236.38;;;3.09;39.57
40490;BME280;26196;52.302;10.572;2022-12-18T09:10:16;102230.34;;;3.10;39.06
40490;BME280;26196;52.302;10.572;2022-12-18T09:14:17;102225.16;;;3.08;39.43
40490;BME280;26196;52.302;10.572;2022-12-18T09:18:19;102226.91;;;3.09;39.89
40490;BME280;26196;52.302;10.572;2022-12-18T09:22:19;102214.00;;;3.11;39.80
40490;BME280;26196;52.302;10.572;2022-12-18T09:26:20;102215.84;;;3.15;39.97
40490;BME280;26196;52.302;10.572;2022-12-18T09:30:21;102208.09;;;3.15;40.13
40490;BME280;26196;52.302;10.572;2022-12-18T09:34:21;102202.19;;;3.19;40.05
40490;BME280;26196;52.302;10.572;2022-12-18T09:38:22;102184.53;;;3.05;40.35
40490;BME280;26196;52.302;10.572;2022-12-18T09:42:23;102198.72;;;3.18;40.52
40490;BME280;26196;52.302;10.572;2022-12-18T09:46:38;102195.38;;;3.22;40.42
40490;BME280;26196;52.302;10.572;2022-12-18T09:50:43;102192.00;;;3.25;40.57
40490;BME280;26196;52.302;10.572;2022-12-18T09:59:22;102177.56;;;3.33;41.87
40490;BME280;26196;52.302;10.572;2022-12-18T10:03:24;102180.53;;;3.45;41.52
40490;BME280;26196;52.302;10.572;2022-12-18T10:07:42;102186.44;;;3.41;41.19
40490;BME280;26196;52.302;10.572;2022-12-18T10:16:09;102186.59;;;3.46;41.53
40490;BME280;26196;52.302;10.572;2022-12-18T10:20:35;102190.03;;;3.46;42.18
40490;BME280;26196;52.302;10.572;2022-12-18T10:24:51;102198.81;;;3.51;42.30
40490;BME280;26196;52.302;10.572;2022-12-18T10:28:57;102210.09;;;3.52;42.12
40490;BME280;26196;52.302;10.572;2022-12-18T10:33:01;102223.97;;;3.56;42.09
40490;BME280;26196;52.302;10.572;2022-12-18T10:37:06;102224.78;;;3.53;42.51
40490;BME280;26196;52.302;10.572;2022-12-18T10:45:21;102217.31;;;3.64;43.07
40490;BME280;26196;52.302;10.572;2022-12-18T10:49:32;102208.69;;;3.65;42.78
40490;BME280;26196;52.302;10.572;2022-12-18T10:53:36;102202.72;;;3.67;42.49
40490;BME280;26196;52.302;10.572;2022-12-18T10:57:38;102191.75;;;3.76;42.40
40490;BME280;26196;52.302;10.572;2022-12-18T11:01:52;102185.38;;;3.95;42.45
40490;BME280;26196;52.302;10.572;2022-12-18T11:06:02;102175.13;;;4.00;43.13
40490;BME280;26196;52.302;10.572;2022-12-18T11:10:03;102163.91;;;3.99;43.43
40490;BME280;26196;52.302;10.572;2022-12-18T11:14:06;102162.97;;;3.97;43.85
40490;BME280;26196;52.302;10.572;2022-12-18T11:18:27;102156.81;;;3.93;43.26
40490;BME280;26196;52.302;10.572;2022-12-18T11:22:33;102159.59;;;4.00;43.88
40490;BME280;26196;52.302;10.572;2022-12-18T11:26:34;102144.06;;;4.01;43.31
40490;BME280;26196;52.302;10.572;2022-12-18T11:30:36;102138.09;;;4.04;43.37
40490;BME280;26196;52.302;10.572;2022-12-18T11:34:36;102140.84;;;4.10;43.49
40490;BME280;26196;52.302;10.572;2022-12-18T11:38:39;102127.91;;;4.11;43.91
40490;BME280;26196;52.302;10.572;2022-12-18T11:47:36;102145.31;;;4.17;43.56
40490;BME280;26196;52.302;10.572;2022-12-18T11:51:51;102155.69;;;4.17;43.82
40490;BME280;26196;52.302;10.572;2022-12-18T12:00:20;102161.88;;;4.22;44.16
40490;BME280;26196;52.302;10.572;2022-12-18T12:09:20;102135.25;;;4.28;43.53
40490;BME280;26196;52.302;10.572;2022-12-18T12:13:43;102117.97;;;4.28;43.91
40490;BME280;26196;52.302;10.572;2022-12-18T12:26:51;102087.00;;;4.33;44.55
40490;BME280;26196;52.302;10.572;2022-12-18T12:31:13;102081.22;;;4.45;43.77
40490;BME280;26196;52.302;10.572;2022-12-18T12:39:38;102065.59;;;4.42;44.45
40490;BME280;26196;52.302;10.572;2022-12-18T12:43:45;102063.09;;;4.46;45.42
40490;BME280;26196;52.302;10.572;2022-12-18T12:47:48;102069.19;;;4.48;44.80
40490;BME280;26196;52.302;10.572;2022-12-18T12:52:00;102061.50;;;4.51;45.31
40490;BME280;26196;52.302;10.572;2022-12-18T12:56:05;102060.69;;;4.54;45.19
40490;BME280;26196;52.302;10.572;2022-12-18T13:00:16;102055.69;;;4.62;45.10
40490;BME280;26196;52.302;10.572;2022-12-18T13:08:53;102042.34;;;4.86;44.53
40490;BME280;26196;52.302;10.572;2022-12-18T13:13:00;102039.09;;;4.96;44.18
40490;BME280;26196;52.302;10.572;2022-12-18T13:21:27;102009.13;;;5.12;44.85
40490;BME280;26196;52.302;10.572;2022-12-18T13:25:31;102004.09;;;5.19;44.80
40490;BME280;26196;52.302;10.572;2022-12-18T13:29:43;102003.28;;;5.23;45.54
40490;BME280;26196;52.302;10.572;2022-12-18T13:33:45;102018.91;;;5.26;45.02
40490;BME280;26196;52.302;10.572;2022-12-18T13:37:53;102017.38;;;5.35;45.44
40490;BME280;26196;52.302;10.572;2022-12-18T13:46:48;102014.69;;;5.30;47.00
40490;BME280;26196;52.302;10.572;2022-12-18T13:50:53;102009.47;;;5.30;46.50
40490;BME280;26196;52.302;10.572;2022-12-18T13:54:56;102014.63;;;5.29;47.28
40490;BME280;26196;52.302;10.572;2022-12-18T14:03:26;102012.03;;;5.29;47.84
40490;BME280;26196;52.302;10.572;2022-12-18T14:07:28;102015.53;;;5.31;47.68
40490;BME280;26196;52.302;10.572;2022-12-18T14:11:30;102017.28;;;5.32;47.48
40490;BME280;26196;52.302;10.572;2022-12-18T14:15:33;102019.06;;;5.33;47.94
40490;BME280;26196;52.302;10.572;2022-12-18T14:19:34;102017.38;;;5.35;47.47
40490;BME280;26196;52.302;10.572;2022-12-18T14:27:38;102012.28;;;5.41;47.03
40490;BME280;26196;52.302;10.572;2022-12-18T14:31:41;102007.34;;;5.56;46.38
40490;BME280;26196;52.302;10.572;2022-12-18T14:35:52;102000.38;;;5.55;46.65
40490;BME280;26196;52.302;10.572;2022-12-18T14:43:54;102003.84;;;5.54;47.14
40490;BME280;26196;52.302;10.572;2022-12-18T14:47:54;102008.13;;;5.52;47.13
40490;BME280;26196;52.302;10.572;2022-12-18T14:51:57;102006.50;;;5.56;47.49
40490;BME280;26196;52.302;10.572;2022-12-18T14:55:58;101991.81;;;5.59;46.88
40490;BME280;26196;52.302;10.572;2022-12-18T15:00:07;101974.41;;;5.55;46.63
40490;BME280;26196;52.302;10.572;2022-12-18T15:04:25;101973.59;;;5.56;47.61
40490;BME280;26196;52.302;10.572;2022-12-18T15:08:29;101966.66;;;5.57;47.00
40490;BME280;26196;52.302;10.572;2022-12-18T15:12:35;101958.81;;;5.54;46.71
40490;BME280;26196;52.302;10.572;2022-12-18T15:16:35;101958.00;;;5.56;46.73
40490;BME280;26196;52.302;10.572;2022-12-18T15:20:40;101954.50;;;5.54;47.04
40490;BME280;26196;52.302;10.572;2022-12-18T15:24:41;101948.44;;;5.55;47.47
40490;BME280;26196;52.302;10.572;2022-12-18T15:28:54;101934.69;;;5.59;46.70
40490;BME280;26196;52.302;10.572;2022-12-18T15:33:25;101939.00;;;5.60;47.48
40490;BME280;26196;52.302;10.572;2022-12-18T15:37:25;101927.78;;;5.63;47.46
40490;BME280;26196;52.302;10.572;2022-12-18T15:41:26;101920.00;;;5.63;47.09
40490;BME280;26196;52.302;10.572;2022-12-18T15:45:27;101924.44;;;5.68;47.39
40490;BME280;26196;52.302;10.572;2022-12-18T15:49:27;101919.25;;;5.70;47.28
40490;BME280;26196;52.302;10.572;2022-12-18T15:53:30;101930.47;;;5.66;46.83
40490;BME280;26196;52.302;10.572;2022-12-18T15:57:32;101926.13;;;5.66;46.79
40490;BME280;26196;52.302;10.572;2022-12-18T16:01:32;101918.34;;;5.66;46.62
40490;BME280;26196;52.302;10.572;2022-12-18T16:05:33;101901.91;;;5.67;47.13
40490;BME280;26196;52.302;10.572;2022-12-18T16:09:33;101901.06;;;5.70;47.26
40490;BME280;26196;52.302;10.572;2022-12-18T16:13:34;101895.03;;;5.71;47.08
40490;BME280;26196;52.302;10.572;2022-12-18T16:17:34;101888.13;;;5.72;47.05
40490;BME280;26196;52.302;10.572;2022-12-18T16:21:34;101867.28;;;5.70;47.11
40490;BME280;26196;52.302;10.572;2022-12-18T16:25:35;101871.66;;;5.73;47.28
40490;BME280;26196;52.302;10.572;2022-12-18T16:29:35;101876.91;;;5.76;46.80
40490;BME280;26196;52.302;10.572;2022-12-18T16:33:36;101860.53;;;5.80;46.23
40490;BME280;26196;52.302;10.572;2022-12-18T16:37:36;101870.00;;;5.78;46.30
40490;BME280;26196;52.302;10.572;2022-12-18T16:41:36;101874.41;;;5.82;46.54
40490;BME280;26196;52.302;10.572;2022-12-18T16:45:37;101870.09;;;5.84;46.20
40490;BME280;26196;52.302;10.572;2022-12-18T16:49:37;101867.47;;;5.82;46.32
40490;BME280;26196;52.302;10.572;2022-12-18T16:53:38;101871.78;;;5.80;46.60
40490;BME280;26196;52.302;10.572;2022-12-18T16:57:38;101852.84;;;5.87;46.30
40490;BME280;26196;52.302;10.572;2022-12-18T17:01:38;101842.44;;;5.87;46.04
40490;BME280;26196;52.302;10.572;2022-12-18T17:05:40;101844.09;;;5.84;46.27
40490;BME280;26196;52.302;10.572;2022-12-18T17:09:41;101837.25;;;5.89;46.22
40490;BME280;26196;52.302;10.572;2022-12-18T17:13:41;101851.31;;;6.00;46.76
40490;BME280;26196;52.302;10.572;2022-12-18T17:17:42;101853.91;;;6.00;46.65
40490;BME280;26196;52.302;10.572;2022-12-18T17:21:43;101837.38;;;5.95;46.39
40490;BME280;26196;52.302;10.572;2022-12-18T17:25:43;101827.88;;;5.97;46.53
40490;BME280;26196;52.302;10.572;2022-12-18T17:29:44;101836.41;;;5.90;46.28
40490;BME280;26196;52.302;10.572;2022-12-18T17:33:45;101829.41;;;5.86;46.79
40490;BME280;26196;52.302;10.572;2022-12-18T17:37:45;101833.75;;;5.85;46.85
40490;BME280;26196;52.302;10.572;2022-12-18T17:41:47;101820.72;;;5.82;46.87
40490;BME280;26196;52.302;10.572;2022-12-18T17:45:48;101818.13;;;5.82;46.73
40490;BME280;26196;52.302;10.572;2022-12-18T17:49:48;101816.44;;;5.87;46.94
40490;BME280;26196;52.302;10.572;2022-12-18T17:53:49;101809.53;;;5.88;46.46
40490;BME280;26196;52.302;10.572;2022-12-18T17:57:49;101807.81;;;5.90;47.48
40490;BME280;26196;52.302;10.572;2022-12-18T18:01:50;101812.09;;;5.86;47.14
40490;BME280;26196;52.302;10.572;2022-12-18T18:05:55;101803.47;;;5.89;47.38
40490;BME280;26196;52.302;10.572;2022-12-18T18:09:55;101787.16;;;5.98;47.42
40490;BME280;26196;52.302;10.572;2022-12-18T18:13:57;101767.94;;;5.88;46.95
40490;BME280;26196;52.302;10.572;2022-12-18T18:18:00;101781.84;;;5.91;46.83
40490;BME280;26196;52.302;10.572;2022-12-18T18:22:01;101774.03;;;5.90;46.73
40490;BME280;26196;52.302;10.572;2022-12-18T18:26:06;101769.78;;;5.94;46.47
40490;BME280;26196;52.302;10.572;2022-12-18T18:30:07;101758.44;;;5.90;46.43
40490;BME280;26196;52.302;10.572;2022-12-18T18:34:28;101753.28;;;5.93;46.41
40490;BME280;26196;52.302;10.572;2022-12-18T18:38:29;101755.13;;;5.97;46.26
40490;BME280;26196;52.302;10.572;2022-12-18T18:42:29;101756.84;;;5.98;46.31
40490;BME280;26196;52.302;10.572;2022-12-18T18:46:30;101748.91;;;5.90;46.50
40490;BME280;26196;52.302;10.572;2022-12-18T18:50:30;101748.03;;;5.88;46.79
40490;BME280;26196;52.302;10.572;2022-12-18T18:54:31;101754.91;;;5.85;46.44
40490;BME280;26196;52.302;10.572;2022-12-18T18:58:32;101754.91;;;5.85;46.84
40490;BME280;26196;52.302;10.572;2022-12-18T19:02:32;101749.69;;;5.82;46.90
40490;BME280;26196;52.302;10.572;2022-12-18T19:06:33;101749.69;;;5.83;46.96
40490;BME280;26196;52.302;10.572;2022-12-18T19:10:33;101747.09;;;5.83;47.39
40490;BME280;26196;52.302;10.572;2022-12-18T19:14:38;101744.50;;;5.83;47.85
40490;BME280;26196;52.302;10.572;2022-12-18T19:18:39;101734.06;;;5.79;47.86
40490;BME280;26196;52.302;10.572;2022-12-18T19:22:39;101730.59;;;5.80;47.63
40490;BME280;26196;52.302;10.572;2022-12-18T19:26:40;101728.88;;;5.79;47.95
40490;BME280;26196;52.302;10.572;2022-12-18T19:30:40;101726.28;;;5.80;48.17
40490;BME280;26196;52.302;10.572;2022-12-18T19:34:40;101733.22;;;5.80;47.89
40490;BME280;26196;52.302;10.572;2022-12-18T19:38:41;101723.72;;;5.82;47.92
40490;BME280;26196;52.302;10.572;2022-12-18T19:42:41;101726.31;;;5.83;47.86
40490;BME280;26196;52.302;10.572;2022-12-18T19:46:43;101708.13;;;5.82;48.37
40490;BME280;26196;52.302;10.572;2022-12-18T19:50:45;101713.31;;;5.82;48.01
40490;BME280;26196;52.302;10.572;2022-12-18T19:54:45;101695.97;;;5.81;48.24
40490;BME280;26196;52.302;10.572;2022-12-18T19:58:47;101697.75;;;5.85;48.11
40490;BME280;26196;52.302;10.572;2022-12-18T20:02:47;101700.34;;;5.85;47.96
40490;BME280;26196;52.302;10.572;2022-12-18T20:06:50;101691.63;;;5.81;48.03
40490;BME280;26196;52.302;10.572;2022-12-18T20:10:51;101688.19;;;5.84;48.03
40490;BME280;26196;52.302;10.572;2022-12-18T20:14:51;101667.41;;;5.84;48.18
40490;BME280;26196;52.302;10.572;2022-12-18T20:18:53;101663.09;;;5.83;48.00
40490;BME280;26196;52.302;10.572;2022-12-18T20:22:54;101655.31;;;5.86;48.19
40490;BME280;26196;52.302;10.572;2022-12-18T20:26:54;101652.78;;;5.90;48.24
40490;BME280;26196;52.302;10.572;2022-12-18T20:31:00;101646.72;;;5.91;48.32
40490;BME280;26196;52.302;10.572;2022-12-18T20:35:00;101652.75;;;5.89;48.32
40490;BME280;26196;52.302;10.572;2022-12-18T20:39:02;101644.09;;;5.88;48.96
40490;BME280;26196;52.302;10.572;2022-12-18T20:43:03;101651.00;;;5.88;48.46
40490;BME280;26196;52.302;10.572;2022-12-18T20:47:03;101664.00;;;5.88;48.32
40490;BME280;26196;52.302;10.572;2022-12-18T20:51:12;101661.41;;;5.88;48.60
40490;BME280;26196;52.302;10.572;2022-12-18T20:55:13;101644.09;;;5.88;49.13
40490;BME280;26196;52.302;10.572;2022-12-18T20:59:14;101638.06;;;5.89;49.64
40490;BME280;26196;52.302;10.572;2022-12-18T21:03:14;101633.81;;;5.99;49.18
40490;BME280;26196;52.302;10.572;2022-12-18T21:07:15;101628.66;;;6.01;48.74
40490;BME280;26196;52.302;10.572;2022-12-18T21:15:37;101617.44;;;6.06;49.27
40490;BME280;26196;52.302;10.572;2022-12-18T21:19:38;101616.53;;;6.01;48.85
40490;BME280;26196;52.302;10.572;2022-12-18T21:23:38;101629.50;;;5.98;48.92
40490;BME280;26196;52.302;10.572;2022-12-18T21:27:38;101633.81;;;5.96;49.24
40490;BME280;26196;52.302;10.572;2022-12-18T21:31:39;101619.06;;;5.94;48.96
40490;BME280;26196;52.302;10.572;2022-12-18T21:35:40;101619.91;;;5.94;49.16
40490;BME280;26196;52.302;10.572;2022-12-18T21:39:40;101616.47;;;5.95;48.82
40490;BME280;26196;52.302;10.572;2022-12-18T21:43:40;101614.75;;;5.96;49.15
40490;BME280;26196;52.302;10.572;2022-12-18T21:47:59;101624.28;;;5.95;49.21
40490;BME280;26196;52.302;10.572;2022-12-18T21:52:00;101618.22;;;5.96;49.65
40490;BME280;26196;52.302;10.572;2022-12-18T21:56:00;101622.50;;;5.94;49.44
40490;BME280;26196;52.302;10.572;2022-12-18T22:00:01;101613.81;;;5.92;49.13
40490;BME280;26196;52.302;10.572;2022-12-18T22:04:02;101593.94;;;5.94;49.34
40490;BME280;26196;52.302;10.572;2022-12-18T22:08:02;101604.38;;;5.97;49.05
40490;BME280;26196;52.302;10.572;2022-12-18T22:12:03;101586.19;;;5.99;49.55
40490;BME280;26196;52.302;10.572;2022-12-18T22:16:03;101587.91;;;5.98;48.92
40490;BME280;26196;52.302;10.572;2022-12-18T22:20:04;101581.00;;;6.00;49.12
40490;BME280;26196;52.302;10.572;2022-12-18T22:24:26;101573.19;;;5.99;49.32
40490;BME280;26196;52.302;10.572;2022-12-18T22:28:28;101571.44;;;5.99;49.13
40490;BME280;26196;52.302;10.572;2022-12-18T22:32:47;101565.41;;;6.00;49.00
40490;BME280;26196;52.302;10.572;2022-12-18T22:36:47;101550.69;;;6.01;49.03